createdAt,value
2023-03-28T00:01:13.845Z,4.83
2023-03-28T00:03:43.788Z,4.50
2023-03-28T00:06:16.619Z,4.30
2023-03-28T00:08:47.935Z,3.93
2023-03-28T00:11:20.436Z,4.03
2023-03-28T00:13:51.439Z,4.07
2023-03-28T00:16:20.476Z,4.00
2023-03-28T00:18:51.031Z,3.87
2023-03-28T00:21:24.221Z,4.57
2023-03-28T00:23:53.959Z,4.23
2023-03-28T00:26:24.780Z,3.50
2023-03-28T00:28:53.553Z,3.87
2023-03-28T00:31:23.399Z,4.37
2023-03-28T00:33:53.739Z,3.07
2023-03-28T00:36:26.607Z,3.80
2023-03-28T00:38:56.034Z,3.23
2023-03-28T00:41:26.825Z,3.27
2023-03-28T00:43:57.152Z,3.03
2023-03-28T00:46:30.652Z,1.33
2023-03-28T00:49:04.495Z,3.23
2023-03-28T00:51:36.937Z,3.17
2023-03-28T00:54:06.518Z,3.40
2023-03-28T00:56:38.069Z,3.50
2023-03-28T00:59:10.999Z,2.97
2023-03-28T01:01:39.948Z,2.87
2023-03-28T01:04:10.520Z,3.57
2023-03-28T01:06:45.365Z,3.80
2023-03-28T01:09:19.118Z,3.23
2023-03-28T01:11:52.200Z,3.40
2023-03-28T01:14:23.582Z,3.20
2023-03-28T01:16:56.373Z,2.87
2023-03-28T01:19:43.018Z,3.40
2023-03-28T01:22:38.742Z,3.40
2023-03-28T01:25:45.605Z,3.20
2023-03-28T01:28:28.985Z,4.03
2023-03-28T01:31:26.742Z,4.43
2023-03-28T01:34:40.705Z,3.30
2023-03-28T01:37:26.492Z,3.20
2023-03-28T01:40:12.072Z,3.93
2023-03-28T01:42:54.275Z,4.97
2023-03-28T01:45:29.838Z,4.67
2023-03-28T01:48:07.214Z,4.57
2023-03-28T01:50:45.220Z,4.40
2023-03-28T01:53:22.888Z,4.77
2023-03-28T01:55:57.628Z,3.00
2023-03-28T01:58:32.654Z,3.60
2023-03-28T02:01:10.151Z,4.40
2023-03-28T02:03:43.099Z,3.37
2023-03-28T02:06:30.991Z,3.20
2023-03-28T02:09:05.104Z,3.53
2023-03-28T02:11:50.981Z,3.97
2023-03-28T02:14:39.689Z,3.17
2023-03-28T02:17:52.034Z,3.80
2023-03-28T02:20:51.349Z,3.13
2023-03-28T02:23:46.613Z,3.40
2023-03-28T02:26:35.208Z,4.10
2023-03-28T02:29:24.139Z,3.60
2023-03-28T02:31:59.571Z,4.23
2023-03-28T02:34:28.499Z,3.87
2023-03-28T02:37:08.718Z,4.10
2023-03-28T02:39:49.870Z,3.77
2023-03-28T02:42:42.164Z,4.27
2023-03-28T02:45:34.812Z,4.43
2023-03-28T02:48:14.276Z,4.90
2023-03-28T02:50:50.985Z,4.87
2023-03-28T02:53:28.140Z,4.93
2023-03-28T02:56:02.024Z,3.87
2023-03-28T02:58:54.912Z,5.00
2023-03-28T03:01:29.414Z,4.80
2023-03-28T03:03:59.098Z,5.77
2023-03-28T03:06:27.942Z,5.53
2023-03-28T03:08:56.389Z,5.17
2023-03-28T03:11:28.140Z,5.60
2023-03-28T03:14:00.250Z,4.47
2023-03-28T03:16:31.179Z,3.97
2023-03-28T03:19:00.468Z,5.87
2023-03-28T03:21:29.215Z,5.17
2023-03-28T03:23:58.062Z,4.97
2023-03-28T03:26:27.573Z,4.37
2023-03-28T03:29:03.069Z,4.57
2023-03-28T03:31:33.706Z,10.67
2023-03-28T03:34:28.223Z,6.30
2023-03-28T03:37:00.409Z,5.47
2023-03-28T03:39:29.614Z,5.93
2023-03-28T03:41:58.294Z,5.23
2023-03-28T03:44:28.147Z,4.73
2023-03-28T03:46:57.415Z,9.97
2023-03-28T03:49:25.996Z,5.47
2023-03-28T03:51:55.217Z,5.43
2023-03-28T03:54:23.952Z,5.63
2023-03-28T03:56:52.811Z,4.73
2023-03-28T03:59:22.001Z,14.83
2023-03-28T04:01:53.180Z,5.43
2023-03-28T04:04:22.034Z,5.27
2023-03-28T04:07:17.308Z,5.30
2023-03-28T04:09:48.195Z,4.67
2023-03-28T04:12:18.467Z,7.13
2023-03-28T04:14:57.417Z,4.97
2023-03-28T04:17:41.225Z,5.83
2023-03-28T04:20:15.128Z,5.93
2023-03-28T04:23:05.931Z,6.40
2023-03-28T04:25:35.039Z,12.90
2023-03-28T04:28:27.768Z,25.37
2023-03-28T04:31:04.649Z,9.83
2023-03-28T04:33:54.982Z,14.60
2023-03-28T04:36:25.821Z,28.60
2023-03-28T04:39:03.893Z,16.03
2023-03-28T04:41:55.597Z,5.13
2023-03-28T04:44:45.545Z,4.77
2023-03-28T04:47:15.192Z,7.43
2023-03-28T04:49:45.336Z,5.87
2023-03-28T04:52:14.883Z,5.63
2023-03-28T04:54:45.910Z,4.80
2023-03-28T04:57:17.529Z,5.40
2023-03-28T04:59:49.479Z,4.60
2023-03-28T05:02:41.220Z,6.40
2023-03-28T05:05:15.760Z,6.00
2023-03-28T05:07:44.269Z,5.10
2023-03-28T05:10:14.195Z,4.73
2023-03-28T05:12:43.148Z,5.30
2023-03-28T05:15:21.738Z,4.40
2023-03-28T05:18:27.366Z,4.47
2023-03-28T05:20:58.065Z,3.87
2023-03-28T05:23:26.860Z,4.33
2023-03-28T05:25:56.089Z,9.00
2023-03-28T05:28:24.960Z,4.97
2023-03-28T05:30:54.729Z,5.90
2023-03-28T05:33:23.306Z,5.53
2023-03-28T05:35:53.615Z,3.77
2023-03-28T05:38:23.539Z,3.93
2023-03-28T05:40:58.808Z,5.10
2023-03-28T05:43:27.610Z,4.00
2023-03-28T05:45:56.435Z,3.73
2023-03-28T05:48:31.896Z,4.67
2023-03-28T05:51:01.186Z,3.10
2023-03-28T05:53:31.332Z,3.57
2023-03-28T05:56:00.229Z,3.60
2023-03-28T05:58:29.558Z,3.70
2023-03-28T06:00:58.610Z,4.43
2023-03-28T06:03:28.073Z,5.57
2023-03-28T06:05:57.257Z,3.40
2023-03-28T06:08:28.685Z,3.77
2023-03-28T06:11:03.448Z,5.50
2023-03-28T06:13:46.573Z,4.83
2023-03-28T06:16:16.344Z,4.63
2023-03-28T06:18:44.925Z,3.90
2023-03-28T06:21:14.074Z,4.03
2023-03-28T06:23:42.616Z,4.57
2023-03-28T06:26:23.449Z,3.53
2023-03-28T06:28:52.850Z,4.93
2023-03-28T06:31:32.323Z,5.50
2023-03-28T06:34:00.881Z,4.30
2023-03-28T06:36:29.685Z,4.60
2023-03-28T06:38:58.450Z,5.20
2023-03-28T06:41:30.630Z,5.17
2023-03-28T06:43:59.272Z,5.53
2023-03-28T06:46:46.564Z,4.20
2023-03-28T06:49:15.697Z,4.13
2023-03-28T06:52:03.499Z,5.07
2023-03-28T06:54:32.615Z,4.93
2023-03-28T06:57:02.740Z,4.30
2023-03-28T06:59:31.352Z,5.07
2023-03-28T07:02:05.079Z,5.13
2023-03-28T07:04:35.983Z,4.20
2023-03-28T07:07:04.940Z,4.50
2023-03-28T07:09:34.086Z,4.13
2023-03-28T07:12:10.405Z,4.97
2023-03-28T07:14:40.601Z,4.30
2023-03-28T07:17:09.762Z,3.57
2023-03-28T07:19:38.235Z,4.20
2023-03-28T07:22:07.272Z,4.10
2023-03-28T07:24:37.814Z,5.47
2023-03-28T07:27:17.378Z,4.30
2023-03-28T07:29:47.811Z,4.47
2023-03-28T07:32:17.069Z,5.07
2023-03-28T07:34:47.570Z,5.63
2023-03-28T07:37:22.883Z,4.80
2023-03-28T07:40:12.855Z,5.27
2023-03-28T07:42:44.514Z,4.53
2023-03-28T07:45:13.228Z,4.77
2023-03-28T07:47:42.461Z,4.83
2023-03-28T07:50:11.361Z,4.30
2023-03-28T07:52:45.412Z,5.20
2023-03-28T07:55:15.004Z,4.73
2023-03-28T07:57:50.038Z,4.00
2023-03-28T08:00:27.633Z,5.47
2023-03-28T08:03:16.000Z,4.90
2023-03-28T08:05:51.554Z,5.93
2023-03-28T08:08:22.979Z,4.50
2023-03-28T08:11:13.469Z,8.40
2023-03-28T08:13:44.073Z,5.43
2023-03-28T08:16:20.582Z,32.97
2023-03-28T08:18:57.007Z,5.17
2023-03-28T08:21:32.156Z,5.27
2023-03-28T08:24:01.169Z,4.20
2023-03-28T08:26:47.434Z,4.33
2023-03-28T08:29:18.922Z,6.07
2023-03-28T08:31:47.974Z,13.90
2023-03-28T08:34:17.500Z,4.47
2023-03-28T08:36:47.102Z,4.43
2023-03-28T08:39:29.208Z,4.70
2023-03-28T08:42:23.586Z,4.33
2023-03-28T08:45:12.482Z,4.17
2023-03-28T08:47:49.320Z,4.30
2023-03-28T08:50:25.137Z,3.83
2023-03-28T08:52:54.885Z,5.60
2023-03-28T08:55:31.236Z,4.97
2023-03-28T08:58:01.996Z,4.63
2023-03-28T09:00:34.398Z,4.83
2023-03-28T09:03:02.916Z,3.80
2023-03-28T09:05:42.252Z,3.83
2023-03-28T09:08:29.064Z,4.20
2023-03-28T09:11:04.489Z,4.17
2023-03-28T09:13:41.805Z,4.03
2023-03-28T09:16:36.465Z,2.73
2023-03-28T09:19:40.672Z,2.97
2023-03-28T09:23:06.175Z,3.40
2023-03-28T09:26:08.777Z,3.77
2023-03-28T09:28:47.227Z,3.63
2023-03-28T09:31:20.886Z,3.17
2023-03-28T09:33:51.011Z,3.70
2023-03-28T09:36:41.419Z,3.20
2023-03-28T09:39:25.566Z,3.27
2023-03-28T09:42:01.867Z,3.53
2023-03-28T09:44:58.589Z,3.83
2023-03-28T09:47:47.987Z,4.47
2023-03-28T09:50:21.316Z,3.07
2023-03-28T09:52:57.094Z,2.77
2023-03-28T09:55:29.607Z,3.20
2023-03-28T09:58:07.675Z,3.77
2023-03-28T10:00:56.512Z,3.27
2023-03-28T10:03:54.195Z,3.10
2023-03-28T10:06:32.247Z,3.80
2023-03-28T10:09:18.421Z,3.70
2023-03-28T10:11:59.937Z,2.53
2023-03-28T10:14:36.473Z,4.00
2023-03-28T10:17:09.176Z,3.00
2023-03-28T10:19:47.259Z,3.87
2023-03-28T10:22:27.683Z,4.27
2023-03-28T10:24:59.395Z,3.33
2023-03-28T10:27:32.696Z,3.53
2023-03-28T10:30:16.195Z,4.70
2023-03-28T10:32:45.882Z,4.90
2023-03-28T10:35:31.124Z,4.77
2023-03-28T10:38:21.755Z,3.37
2023-03-28T10:41:08.648Z,3.13
2023-03-28T10:43:52.168Z,4.17
2023-03-28T10:46:33.827Z,4.20
2023-03-28T10:49:25.764Z,3.50
2023-03-28T10:52:14.090Z,4.17
2023-03-28T10:54:57.979Z,4.17
2023-03-28T10:57:57.277Z,3.63
2023-03-28T11:00:31.451Z,3.57
2023-03-28T11:03:19.464Z,3.57
2023-03-28T11:06:08.155Z,4.07
2023-03-28T11:08:55.423Z,3.33
2023-03-28T11:11:45.451Z,3.40
2023-03-28T11:14:25.623Z,3.07
2023-03-28T11:17:02.933Z,4.67
2023-03-28T11:20:17.624Z,4.33
2023-03-28T11:23:06.850Z,3.83
2023-03-28T11:26:09.683Z,3.50
2023-03-28T11:29:19.202Z,3.30
2023-03-28T11:31:57.681Z,3.30
2023-03-28T11:34:32.118Z,4.70
2023-03-28T11:37:05.524Z,3.20
2023-03-28T11:39:42.478Z,2.73
2023-03-28T11:42:21.470Z,4.07
2023-03-28T11:44:59.837Z,3.13
2023-03-28T11:47:34.134Z,4.20
2023-03-28T11:50:17.732Z,3.30
2023-03-28T11:53:17.224Z,4.13
2023-03-28T11:56:04.926Z,4.73
2023-03-28T11:59:00.802Z,4.33
2023-03-28T12:01:32.671Z,9.27
2023-03-28T12:04:06.543Z,3.67
2023-03-28T12:06:52.233Z,4.10
2023-03-28T12:09:35.755Z,6.53
2023-03-28T12:12:11.700Z,7.07
2023-03-28T12:14:53.403Z,4.17
2023-03-28T12:17:41.898Z,4.13
2023-03-28T12:20:16.887Z,4.23
2023-03-28T12:22:52.628Z,5.50
2023-03-28T12:25:44.946Z,4.90
2023-03-28T12:28:24.060Z,5.17
2023-03-28T12:31:02.655Z,3.57
2023-03-28T12:33:44.678Z,3.63
2023-03-28T12:36:33.997Z,3.40
2023-03-28T12:39:12.777Z,4.57
2023-03-28T12:41:44.576Z,2.87
2023-03-28T12:44:16.297Z,3.30
2023-03-28T12:46:54.577Z,2.90
2023-03-28T12:49:33.442Z,4.33
2023-03-28T12:52:08.828Z,3.13
2023-03-28T12:54:55.024Z,2.30
2023-03-28T12:57:43.849Z,2.83
2023-03-28T13:00:28.847Z,3.20
2023-03-28T13:03:36.095Z,4.13
2023-03-28T13:06:15.586Z,2.57
2023-03-28T13:09:05.340Z,2.67
2023-03-28T13:11:43.699Z,3.27
2023-03-28T13:14:36.368Z,3.37
2023-03-28T13:17:19.581Z,3.33
2023-03-28T13:19:53.600Z,3.50
2023-03-28T13:22:34.790Z,3.37
2023-03-28T13:25:26.145Z,3.00
2023-03-28T13:27:57.217Z,3.70
2023-03-28T13:30:28.737Z,3.07
2023-03-28T13:33:00.877Z,3.33
2023-03-28T13:35:40.571Z,3.73
2023-03-28T13:38:33.507Z,4.23
2023-03-28T13:41:06.573Z,3.27
2023-03-28T13:43:43.679Z,3.93
2023-03-28T13:46:16.127Z,4.43
2023-03-28T13:48:50.677Z,4.10
2023-03-28T13:51:24.238Z,3.93
2023-03-28T13:53:53.234Z,3.93
2023-03-28T13:56:25.074Z,4.17
2023-03-28T13:58:56.105Z,3.87
2023-03-28T14:01:27.251Z,4.77
2023-03-28T14:03:56.883Z,3.87
2023-03-28T14:06:28.215Z,3.77
2023-03-28T14:09:00.449Z,4.47
2023-03-28T14:11:36.600Z,4.00
2023-03-28T14:14:12.446Z,2.90
2023-03-28T14:16:43.131Z,3.90
2023-03-28T14:19:20.058Z,4.17
2023-03-28T14:21:51.227Z,4.43
2023-03-28T14:24:25.327Z,3.57
2023-03-28T14:27:05.916Z,3.30
2023-03-28T14:29:34.699Z,3.40
2023-03-28T14:32:08.318Z,3.57
2023-03-28T14:34:38.878Z,3.93
2023-03-28T14:37:17.689Z,3.60
2023-03-28T14:39:47.348Z,2.87
2023-03-28T14:42:17.881Z,5.47
2023-03-28T14:44:50.393Z,4.00
2023-03-28T14:47:26.729Z,3.57
2023-03-28T14:49:56.195Z,5.23
2023-03-28T14:52:30.760Z,4.70
2023-03-28T14:55:01.734Z,4.67
2023-03-28T14:57:31.269Z,3.93
2023-03-28T15:00:01.326Z,3.87
2023-03-28T15:02:35.247Z,3.67
2023-03-28T15:05:07.768Z,5.00
2023-03-28T15:07:39.224Z,3.77
2023-03-28T15:10:11.388Z,3.53
2023-03-28T15:12:46.846Z,5.17
2023-03-28T15:15:18.433Z,3.37
2023-03-28T15:17:47.834Z,2.63
2023-03-28T15:20:20.149Z,3.63
2023-03-28T15:22:55.657Z,2.40
2023-03-28T15:25:25.342Z,3.40
2023-03-28T15:27:58.590Z,3.13
2023-03-28T15:30:28.468Z,2.50
2023-03-28T15:33:02.864Z,3.13
2023-03-28T15:35:33.550Z,3.60
2023-03-28T15:38:08.270Z,3.20
2023-03-28T15:40:42.835Z,4.00
2023-03-28T15:43:36.620Z,3.57
2023-03-28T15:46:11.661Z,3.90
2023-03-28T15:48:42.094Z,3.50
2023-03-28T15:51:15.918Z,5.53
2023-03-28T15:53:47.750Z,2.93
2023-03-28T15:56:23.137Z,3.87
2023-03-28T15:58:51.985Z,3.87
2023-03-28T16:01:26.737Z,4.87
2023-03-28T16:04:21.283Z,4.27
2023-03-28T16:06:50.436Z,4.10
2023-03-28T16:09:22.824Z,3.33
2023-03-28T16:11:58.548Z,3.30
2023-03-28T16:14:47.928Z,3.43
2023-03-28T16:17:35.653Z,4.37
2023-03-28T16:20:25.418Z,4.60
2023-03-28T16:22:54.433Z,3.20
2023-03-28T16:25:24.394Z,4.03
2023-03-28T16:27:53.164Z,4.33
2023-03-28T16:30:26.500Z,5.27
2023-03-28T16:32:56.110Z,6.70
2023-03-28T16:35:27.052Z,4.30
2023-03-28T16:37:56.202Z,3.57
2023-03-28T16:40:26.037Z,4.77
2023-03-28T16:42:55.128Z,4.73
2023-03-28T16:45:23.761Z,4.53
2023-03-28T16:47:52.616Z,4.33
2023-03-28T16:50:21.253Z,5.53
2023-03-28T16:52:49.967Z,3.97
2023-03-28T16:55:19.625Z,3.00
2023-03-28T16:57:49.775Z,2.90
2023-03-28T17:00:22.869Z,4.87
2023-03-28T17:02:51.999Z,4.50
2023-03-28T17:05:20.512Z,4.07
2023-03-28T17:07:49.286Z,3.50
2023-03-28T17:10:17.775Z,4.57
2023-03-28T17:12:46.480Z,3.23
2023-03-28T17:15:16.329Z,3.60
2023-03-28T17:17:45.184Z,4.17
2023-03-28T17:20:13.749Z,3.40
2023-03-28T17:22:42.772Z,3.97
2023-03-28T17:25:11.346Z,5.83
2023-03-28T17:27:40.481Z,5.63
2023-03-28T17:30:11.622Z,3.87
2023-03-28T17:32:42.301Z,4.53
2023-03-28T17:35:12.505Z,4.60
2023-03-28T17:37:41.743Z,4.40
2023-03-28T17:40:11.254Z,5.00
2023-03-28T17:42:40.196Z,5.03
2023-03-28T17:45:10.701Z,4.40
2023-03-28T17:47:39.724Z,6.67
2023-03-28T17:50:10.845Z,6.03
2023-03-28T17:52:39.848Z,5.53
2023-03-28T17:55:08.963Z,5.60
2023-03-28T17:57:37.715Z,5.53
2023-03-28T18:00:07.922Z,6.07
2023-03-28T18:02:46.069Z,4.77
2023-03-28T18:05:36.042Z,6.40
2023-03-28T18:08:04.908Z,5.63
2023-03-28T18:10:33.504Z,5.57
2023-03-28T18:13:02.232Z,5.90
2023-03-28T18:15:30.725Z,6.10
2023-03-28T18:18:01.698Z,5.83
2023-03-28T18:20:30.305Z,5.40
2023-03-28T18:23:00.408Z,5.17
2023-03-28T18:25:32.319Z,6.10
2023-03-28T18:28:02.544Z,5.63
2023-03-28T18:30:31.980Z,5.97
2023-03-28T18:33:01.081Z,6.53
2023-03-28T18:35:29.725Z,6.60
2023-03-28T18:38:00.036Z,5.60
2023-03-28T18:40:28.706Z,5.60
2023-03-28T18:42:57.637Z,6.67
2023-03-28T18:45:28.675Z,5.93
2023-03-28T18:47:58.959Z,6.50
2023-03-28T18:50:28.654Z,6.47
2023-03-28T18:52:58.013Z,6.57
2023-03-28T18:55:28.242Z,6.50
2023-03-28T18:57:59.400Z,6.67
2023-03-28T19:00:27.993Z,7.10
2023-03-28T19:02:58.049Z,6.47
2023-03-28T19:05:26.737Z,6.23
2023-03-28T19:07:57.220Z,7.23
2023-03-28T19:10:27.341Z,8.20
2023-03-28T19:12:56.518Z,7.67
2023-03-28T19:15:25.882Z,7.00
2023-03-28T19:17:54.814Z,7.43
2023-03-28T19:20:23.379Z,8.30
2023-03-28T19:22:58.158Z,7.20
2023-03-28T19:25:29.726Z,7.87
2023-03-28T19:29:01.402Z,9.10
2023-03-28T19:32:21.474Z,8.07
2023-03-28T19:35:25.689Z,9.70
2023-03-28T19:39:02.499Z,9.63
2023-03-28T19:42:07.736Z,11.87
2023-03-28T19:44:47.577Z,8.80
2023-03-28T19:47:22.499Z,9.23
2023-03-28T19:50:11.517Z,7.10
2023-03-28T19:53:28.797Z,7.00
2023-03-28T19:56:23.088Z,7.43
2023-03-28T19:58:53.727Z,6.57
2023-03-28T20:01:22.287Z,6.40
2023-03-28T20:03:53.211Z,6.60
2023-03-28T20:06:23.174Z,7.53
2023-03-28T20:08:52.726Z,6.73
2023-03-28T20:11:22.055Z,8.17
2023-03-28T20:13:51.218Z,8.73
2023-03-28T20:16:25.137Z,6.50
2023-03-28T20:18:56.058Z,8.60
2023-03-28T20:21:24.597Z,8.10
2023-03-28T20:23:54.235Z,9.07
2023-03-28T20:26:25.971Z,7.50
2023-03-28T20:28:56.932Z,7.70
2023-03-28T20:31:28.493Z,7.23
2023-03-28T20:34:00.509Z,6.97
2023-03-28T20:36:29.044Z,7.47
2023-03-28T20:38:57.836Z,7.43
2023-03-28T20:41:28.002Z,8.00
2023-03-28T20:44:03.188Z,9.23
2023-03-28T20:46:36.835Z,7.87
2023-03-28T20:49:07.925Z,7.13
2023-03-28T20:51:39.364Z,6.97
2023-03-28T20:54:08.401Z,7.30
2023-03-28T20:56:37.110Z,8.00
2023-03-28T20:59:06.296Z,7.90
2023-03-28T21:01:44.533Z,8.67
2023-03-28T21:04:15.353Z,9.50
2023-03-28T21:06:45.989Z,7.83
2023-03-28T21:09:18.063Z,8.33
2023-03-28T21:11:46.821Z,10.47
2023-03-28T21:14:15.651Z,9.93
2023-03-28T21:16:47.380Z,10.27
2023-03-28T21:19:16.596Z,11.67
2023-03-28T21:21:45.040Z,14.17
2023-03-28T21:24:14.058Z,15.60
2023-03-28T21:26:42.490Z,15.00
2023-03-28T21:29:11.669Z,13.37
2023-03-28T21:31:40.180Z,12.27
2023-03-28T21:34:10.701Z,12.57
2023-03-28T21:36:39.179Z,14.37
2023-03-28T21:39:07.913Z,13.60
2023-03-28T21:41:38.091Z,13.73
2023-03-28T21:44:07.010Z,12.67
2023-03-28T21:46:36.395Z,13.97
2023-03-28T21:49:05.207Z,14.37
2023-03-28T21:51:35.908Z,13.50
2023-03-28T21:54:05.481Z,14.43
2023-03-28T21:56:33.899Z,13.23
2023-03-28T21:59:02.667Z,12.93
2023-03-28T22:01:31.128Z,13.07
2023-03-28T22:04:00.797Z,14.27
2023-03-28T22:06:29.484Z,12.97
2023-03-28T22:08:59.949Z,21.07
2023-03-28T22:11:28.993Z,25.57
2023-03-28T22:14:01.444Z,24.73
2023-03-28T22:16:31.503Z,21.20
2023-03-28T22:19:00.831Z,20.47
2023-03-28T22:21:31.495Z,17.40
2023-03-28T22:24:03.692Z,16.77
2023-03-28T22:26:32.360Z,17.27
2023-03-28T22:29:01.384Z,16.23
2023-03-28T22:31:29.878Z,16.40
2023-03-28T22:33:58.711Z,18.83
2023-03-28T22:36:27.245Z,16.60
2023-03-28T22:38:56.954Z,18.00
2023-03-28T22:41:31.876Z,17.00
2023-03-28T22:44:00.845Z,15.57
2023-03-28T22:46:30.029Z,14.70
2023-03-28T22:49:00.598Z,16.40
2023-03-28T22:51:29.820Z,14.40
2023-03-28T22:54:01.851Z,14.47
2023-03-28T22:56:31.862Z,13.63
2023-03-28T22:59:01.750Z,13.27
2023-03-28T23:01:30.403Z,16.97
2023-03-28T23:03:59.381Z,17.67
2023-03-28T23:06:28.605Z,17.30
2023-03-28T23:08:58.575Z,18.10
2023-03-28T23:11:27.543Z,20.87
2023-03-28T23:13:57.640Z,17.80
2023-03-28T23:16:26.406Z,16.60
2023-03-28T23:18:55.120Z,15.87
2023-03-28T23:21:24.430Z,17.63
2023-03-28T23:23:54.073Z,17.40
2023-03-28T23:26:22.523Z,17.67
2023-03-28T23:28:51.337Z,14.73
2023-03-28T23:31:21.386Z,13.40
2023-03-28T23:33:50.417Z,15.47
2023-03-28T23:36:20.960Z,18.50
2023-03-28T23:38:50.052Z,18.37
2023-03-28T23:41:18.588Z,19.50
2023-03-28T23:43:47.322Z,20.57
2023-03-28T23:46:16.223Z,17.90
2023-03-28T23:48:46.370Z,17.47
2023-03-28T23:51:15.239Z,17.23
2023-03-28T23:53:44.178Z,17.83
2023-03-28T23:56:12.765Z,16.90
2023-03-28T23:58:41.481Z,17.13
